createdAt,value
2018-09-19T00:00:28.463Z,4.53
2018-09-19T00:02:58.301Z,4.10
2018-09-19T00:05:27.984Z,3.60
2018-09-19T00:07:57.692Z,4.27
2018-09-19T00:10:26.696Z,3.63
2018-09-19T00:12:55.582Z,5.10
2018-09-19T00:15:25.342Z,4.30
2018-09-19T00:17:54.873Z,4.27
2018-09-19T00:20:23.796Z,4.03
2018-09-19T00:22:53.253Z,4.00
2018-09-19T00:25:22.234Z,3.73
2018-09-19T00:27:51.181Z,4.40
2018-09-19T00:30:20.082Z,4.10
2018-09-19T00:32:50.070Z,3.97
2018-09-19T00:35:19.036Z,3.87
2018-09-19T00:37:48.602Z,4.10
2018-09-19T00:40:17.589Z,3.57
2018-09-19T00:42:47.280Z,3.60
2018-09-19T00:45:16.823Z,4.50
2018-09-19T00:47:46.549Z,3.90
2018-09-19T00:50:15.822Z,3.87
2018-09-19T00:52:44.724Z,4.30
2018-09-19T00:55:13.750Z,4.60
2018-09-19T00:57:42.772Z,3.27
2018-09-19T01:00:12.442Z,3.70
2018-09-19T01:02:41.664Z,4.20
2018-09-19T01:05:12.199Z,3.60
2018-09-19T01:07:41.559Z,3.53
2018-09-19T01:10:11.210Z,3.40
2018-09-19T01:12:40.100Z,3.57
2018-09-19T01:15:09.584Z,3.67
2018-09-19T01:17:39.243Z,3.63
2018-09-19T01:20:08.221Z,3.90
2018-09-19T01:22:37.400Z,4.00
2018-09-19T01:25:06.542Z,3.60
2018-09-19T01:27:35.523Z,4.00
2018-09-19T01:30:05.893Z,3.90
2018-09-19T01:32:35.705Z,3.60
2018-09-19T01:35:04.812Z,4.00
2018-09-19T01:37:33.960Z,3.63
2018-09-19T01:40:03.034Z,3.23
2018-09-19T01:42:32.762Z,3.30
2018-09-19T01:45:01.823Z,4.07
2018-09-19T01:47:31.913Z,3.43
2018-09-19T01:50:02.135Z,3.63
2018-09-19T01:52:32.078Z,3.63
2018-09-19T01:55:01.652Z,4.13
2018-09-19T01:57:31.544Z,4.97
2018-09-19T02:00:01.258Z,4.27
2018-09-19T02:02:30.336Z,4.13
2018-09-19T02:04:59.234Z,3.83
2018-09-19T02:07:28.219Z,4.40
2018-09-19T02:09:57.220Z,4.23
2018-09-19T02:12:27.050Z,4.37
2018-09-19T02:14:55.981Z,3.37
2018-09-19T02:17:25.694Z,3.60
2018-09-19T02:19:54.668Z,4.10
2018-09-19T02:22:23.873Z,3.97
2018-09-19T02:24:52.823Z,3.77
2018-09-19T02:27:23.017Z,4.10
2018-09-19T02:29:52.883Z,3.83
2018-09-19T02:32:21.576Z,3.77
2018-09-19T02:34:50.983Z,3.50
2018-09-19T02:37:19.894Z,3.80
2018-09-19T02:39:49.456Z,3.43
2018-09-19T02:42:18.937Z,3.87
2018-09-19T02:44:47.968Z,3.63
2018-09-19T02:47:16.893Z,3.50
2018-09-19T02:49:46.053Z,3.90
2018-09-19T02:52:15.626Z,3.30
2018-09-19T02:54:44.591Z,3.83
2018-09-19T02:57:13.504Z,3.80
2018-09-19T02:59:43.334Z,4.17
2018-09-19T03:02:13.475Z,3.97
2018-09-19T03:07:11.450Z,4.10
2018-09-19T03:09:40.332Z,3.50
2018-09-19T03:12:09.354Z,3.80
2018-09-19T03:14:38.377Z,4.40
2018-09-19T03:17:07.856Z,3.43
2018-09-19T03:19:37.041Z,3.50
2018-09-19T03:22:05.996Z,4.03
2018-09-19T03:24:36.118Z,3.67
2018-09-19T03:27:05.697Z,4.43
2018-09-19T03:29:35.998Z,3.77
2018-09-19T03:32:05.524Z,4.00
2018-09-19T03:34:35.016Z,3.57
2018-09-19T03:37:05.175Z,4.03
2018-09-19T03:39:34.157Z,3.63
2018-09-19T03:42:03.342Z,3.80
2018-09-19T03:44:32.333Z,3.80
2018-09-19T03:47:01.538Z,3.87
2018-09-19T03:49:32.110Z,4.10
2018-09-19T03:52:08.732Z,3.77
2018-09-19T03:54:37.545Z,3.57
2018-09-19T03:57:06.911Z,3.70
2018-09-19T03:59:36.761Z,4.00
2018-09-19T04:02:06.472Z,5.13
2018-09-19T04:04:35.410Z,3.57
2018-09-19T04:07:04.338Z,3.60
2018-09-19T04:09:33.115Z,3.80
2018-09-19T04:12:06.691Z,3.87
2018-09-19T04:14:36.068Z,3.93
2018-09-19T04:17:05.125Z,3.63
2018-09-19T04:19:34.170Z,3.77
2018-09-19T04:22:03.281Z,4.10
2018-09-19T04:24:33.260Z,4.00
2018-09-19T04:27:02.198Z,4.10
2018-09-19T04:29:32.331Z,3.80
2018-09-19T04:32:01.735Z,3.63
2018-09-19T04:34:30.583Z,3.60
2018-09-19T04:36:59.512Z,3.87
2018-09-19T04:39:29.405Z,4.07
2018-09-19T04:42:00.092Z,3.57
2018-09-19T04:44:29.068Z,3.63
2018-09-19T04:46:58.021Z,3.77
2018-09-19T04:49:26.971Z,3.77
2018-09-19T04:51:55.913Z,4.23
2018-09-19T04:54:24.815Z,3.93
2018-09-19T04:56:54.764Z,3.10
2018-09-19T04:59:24.184Z,3.60
2018-09-19T05:01:53.878Z,3.37
2018-09-19T05:04:23.340Z,3.83
2018-09-19T05:06:52.789Z,3.43
2018-09-19T05:09:21.647Z,3.33
2018-09-19T05:11:50.838Z,3.33
2018-09-19T05:14:19.859Z,3.77
2018-09-19T05:16:48.696Z,3.47
2018-09-19T05:19:18.347Z,3.17
2018-09-19T05:21:47.406Z,3.77
2018-09-19T05:24:16.586Z,4.17
2018-09-19T05:26:46.417Z,3.83
2018-09-19T05:29:15.615Z,4.20
2018-09-19T05:31:44.737Z,4.60
2018-09-19T05:34:13.912Z,4.13
2018-09-19T05:36:43.110Z,3.90
2018-09-19T05:39:12.219Z,4.10
2018-09-19T05:41:41.277Z,5.43
2018-09-19T05:44:10.290Z,4.00
2018-09-19T05:46:39.225Z,4.33
2018-09-19T05:49:08.202Z,3.60
2018-09-19T05:51:37.158Z,3.87
2018-09-19T05:54:05.997Z,4.30
2018-09-19T05:56:35.499Z,4.33
2018-09-19T05:59:04.465Z,3.80
2018-09-19T06:01:33.418Z,4.07
2018-09-19T06:04:02.356Z,4.13
2018-09-19T06:06:31.287Z,4.40
2018-09-19T06:09:00.254Z,4.27
2018-09-19T06:11:29.755Z,4.40
2018-09-19T06:13:59.485Z,4.90
2018-09-19T06:16:29.098Z,4.07
2018-09-19T06:18:58.049Z,3.70
2018-09-19T06:21:28.010Z,4.37
2018-09-19T06:23:58.149Z,4.00
2018-09-19T06:26:27.213Z,4.80
2018-09-19T06:28:57.013Z,6.30
2018-09-19T06:31:27.422Z,5.37
2018-09-19T06:33:57.453Z,5.43
2018-09-19T06:36:26.534Z,5.47
2018-09-19T06:38:55.535Z,5.20
2018-09-19T06:41:24.573Z,4.93
2018-09-19T06:43:54.213Z,5.70
2018-09-19T06:46:23.826Z,5.13
2018-09-19T06:48:53.298Z,6.20
2018-09-19T06:51:22.138Z,4.90
2018-09-19T06:53:51.335Z,5.87
2018-09-19T06:56:21.506Z,6.30
2018-09-19T06:58:50.583Z,5.47
2018-09-19T07:01:19.671Z,5.00
2018-09-19T07:03:48.842Z,5.87
2018-09-19T07:06:18.288Z,6.60
2018-09-19T07:08:47.271Z,5.63
2018-09-19T07:11:16.436Z,5.13
2018-09-19T07:13:46.261Z,5.70
2018-09-19T07:16:15.517Z,5.20
2018-09-19T07:18:44.671Z,5.20
2018-09-19T07:21:14.313Z,5.27
2018-09-19T07:23:44.003Z,5.07
2018-09-19T07:26:13.023Z,5.97
2018-09-19T07:28:42.085Z,5.60
2018-09-19T07:31:11.090Z,6.47
2018-09-19T07:33:40.955Z,5.13
2018-09-19T07:36:10.044Z,5.27
2018-09-19T07:38:39.958Z,5.10
2018-09-19T07:41:09.521Z,4.50
2018-09-19T07:43:38.651Z,5.30
2018-09-19T07:46:08.438Z,4.60
2018-09-19T07:48:38.121Z,5.50
2018-09-19T07:51:07.993Z,4.57
2018-09-19T07:53:37.114Z,4.87
2018-09-19T07:56:06.136Z,4.90
2018-09-19T07:58:35.088Z,5.27
2018-09-19T08:01:04.159Z,4.80
2018-09-19T08:03:32.951Z,5.13
2018-09-19T08:06:02.936Z,5.23
2018-09-19T08:08:31.808Z,4.07
2018-09-19T08:11:00.743Z,4.50
2018-09-19T08:13:30.452Z,4.77
2018-09-19T08:15:59.398Z,4.83
2018-09-19T08:18:28.852Z,4.43
2018-09-19T08:21:01.096Z,4.80
2018-09-19T08:23:31.068Z,4.20
2018-09-19T08:26:01.362Z,5.00
2018-09-19T08:28:30.514Z,5.13
2018-09-19T08:30:59.454Z,5.10
2018-09-19T08:33:28.681Z,4.90
2018-09-19T08:35:57.781Z,4.70
2018-09-19T08:38:27.331Z,4.40
2018-09-19T08:40:56.924Z,4.33
2018-09-19T08:43:26.035Z,5.03
2018-09-19T08:45:55.457Z,4.70
2018-09-19T08:48:24.427Z,4.80
2018-09-19T08:50:53.344Z,4.23
2018-09-19T08:53:23.018Z,4.13
2018-09-19T08:55:51.972Z,4.00
2018-09-19T08:58:20.953Z,3.80
2018-09-19T09:00:51.490Z,4.20
2018-09-19T09:03:21.492Z,4.37
2018-09-19T09:05:50.604Z,4.20
2018-09-19T09:08:20.099Z,4.67
2018-09-19T09:10:48.991Z,4.47
2018-09-19T09:13:18.028Z,3.97
2018-09-19T09:15:46.956Z,4.13
2018-09-19T09:18:15.878Z,4.33
2018-09-19T09:20:44.952Z,4.40
2018-09-19T09:23:14.070Z,3.30
2018-09-19T09:25:43.061Z,4.13
2018-09-19T09:28:12.209Z,4.57
2018-09-19T09:30:41.130Z,3.90
2018-09-19T09:33:10.054Z,3.07
2018-09-19T09:35:39.143Z,3.23
2018-09-19T09:38:08.779Z,4.10
2018-09-19T09:40:37.941Z,3.40
2018-09-19T09:43:07.096Z,3.50
2018-09-19T09:45:36.186Z,4.53
2018-09-19T09:48:05.244Z,3.07
2018-09-19T09:50:34.285Z,3.20
2018-09-19T09:53:03.348Z,3.53
2018-09-19T09:55:32.933Z,3.67
2018-09-19T09:58:01.943Z,3.47
2018-09-19T10:00:36.152Z,3.37
2018-09-19T10:03:05.097Z,3.43
2018-09-19T10:05:34.329Z,4.17
2018-09-19T10:08:03.313Z,4.00
2018-09-19T10:10:32.472Z,3.60
2018-09-19T10:13:01.413Z,3.60
2018-09-19T10:15:30.491Z,3.53
2018-09-19T10:18:00.066Z,3.53
2018-09-19T10:20:29.666Z,3.77
2018-09-19T10:22:58.718Z,3.30
2018-09-19T10:25:28.820Z,3.90
2018-09-19T10:27:57.847Z,3.57
2018-09-19T10:30:28.228Z,4.07
2018-09-19T10:32:57.173Z,3.70
2018-09-19T10:35:26.188Z,3.67
2018-09-19T10:37:55.925Z,3.50
2018-09-19T10:40:24.875Z,4.13
2018-09-19T10:42:54.055Z,4.20
2018-09-19T10:45:23.314Z,4.03
2018-09-19T10:47:52.255Z,4.30
2018-09-19T10:50:21.472Z,4.00
2018-09-19T10:52:51.677Z,4.87
2018-09-19T10:55:20.979Z,4.60
2018-09-19T10:57:50.043Z,5.37
2018-09-19T11:00:19.082Z,3.90
2018-09-19T11:02:48.754Z,4.50
2018-09-19T11:05:17.699Z,4.23
2018-09-19T11:07:47.122Z,4.37
2018-09-19T11:10:16.703Z,4.13
2018-09-19T11:12:45.709Z,3.93
2018-09-19T11:15:15.699Z,4.07
2018-09-19T11:17:44.745Z,5.03
2018-09-19T11:20:14.922Z,4.20
2018-09-19T11:22:43.938Z,3.90
2018-09-19T11:25:13.089Z,4.50
2018-09-19T11:27:45.825Z,4.33
2018-09-19T11:30:14.841Z,5.47
2018-09-19T11:32:44.943Z,4.27
2018-09-19T11:35:13.939Z,4.60
2018-09-19T11:37:43.052Z,3.67
2018-09-19T11:40:12.477Z,4.23
2018-09-19T11:42:42.639Z,6.00
2018-09-19T11:45:14.358Z,3.90
2018-09-19T11:47:43.341Z,3.77
2018-09-19T11:50:13.124Z,4.10
2018-09-19T11:52:42.130Z,3.90
2018-09-19T11:55:11.810Z,4.10
2018-09-19T11:57:40.849Z,3.90
2018-09-19T12:00:09.745Z,4.60
2018-09-19T12:02:38.685Z,4.03
2018-09-19T12:05:07.904Z,3.30
2018-09-19T12:07:40.567Z,3.90
2018-09-19T12:10:09.713Z,3.20
2018-09-19T12:12:38.702Z,3.20
2018-09-19T12:15:07.614Z,3.00
2018-09-19T12:17:36.807Z,4.10
2018-09-19T12:20:06.030Z,3.43
2018-09-19T12:22:36.114Z,3.30
2018-09-19T12:25:05.132Z,3.13
2018-09-19T12:27:34.217Z,3.60
2018-09-19T12:30:03.328Z,3.70
2018-09-19T12:32:32.434Z,3.77
2018-09-19T12:35:03.274Z,4.20
2018-09-19T12:37:32.364Z,3.50
2018-09-19T12:40:01.458Z,3.93
2018-09-19T12:42:30.508Z,3.93
2018-09-19T12:44:59.563Z,4.53
2018-09-19T12:47:28.986Z,3.70
2018-09-19T12:49:58.528Z,3.60
2018-09-19T12:52:27.501Z,4.10
2018-09-19T12:54:56.566Z,3.43
2018-09-19T12:57:25.729Z,3.50
2018-09-19T12:59:55.394Z,4.13
2018-09-19T13:02:24.528Z,3.80
2018-09-19T13:04:54.211Z,3.90
2018-09-19T13:07:23.432Z,3.37
2018-09-19T13:09:52.414Z,3.30
2018-09-19T13:12:21.402Z,4.00
2018-09-19T13:14:50.418Z,3.40
2018-09-19T13:17:19.494Z,3.47
2018-09-19T13:19:49.092Z,3.27
2018-09-19T13:22:18.122Z,3.40
2018-09-19T13:24:47.206Z,3.10
2018-09-19T13:27:16.287Z,3.53
2018-09-19T13:29:45.307Z,3.40
2018-09-19T13:32:14.239Z,3.70
2018-09-19T13:34:43.710Z,3.97
2018-09-19T13:37:13.648Z,3.30
2018-09-19T13:39:42.778Z,3.20
2018-09-19T13:42:11.737Z,3.30
2018-09-19T13:44:41.874Z,3.20
2018-09-19T13:47:11.455Z,3.37
2018-09-19T13:49:44.546Z,3.07
2018-09-19T13:52:14.403Z,3.87
2018-09-19T13:54:43.447Z,3.60
2018-09-19T13:57:12.321Z,3.70
2018-09-19T13:59:41.364Z,3.50
2018-09-19T14:02:10.542Z,3.47
2018-09-19T14:04:39.630Z,3.27
2018-09-19T14:07:08.819Z,3.63
2018-09-19T14:09:38.111Z,3.57
2018-09-19T14:12:07.136Z,3.30
2018-09-19T14:14:36.970Z,3.83
2018-09-19T14:17:06.965Z,3.57
2018-09-19T14:19:36.788Z,3.67
2018-09-19T14:22:06.111Z,4.00
2018-09-19T14:24:35.173Z,4.00
2018-09-19T14:27:04.210Z,3.30
2018-09-19T14:29:34.199Z,3.90
2018-09-19T14:32:03.163Z,3.47
2018-09-19T14:34:32.276Z,4.00
2018-09-19T14:37:01.911Z,3.43
2018-09-19T14:39:30.992Z,3.20
2018-09-19T14:41:59.949Z,3.10
2018-09-19T14:44:29.607Z,3.43
2018-09-19T14:46:59.350Z,3.47
2018-09-19T14:49:28.431Z,3.50
2018-09-19T14:51:57.485Z,3.63
2018-09-19T14:54:26.487Z,3.50
2018-09-19T14:56:55.905Z,3.90
2018-09-19T14:59:25.473Z,3.33
2018-09-19T15:01:55.079Z,3.40
2018-09-19T15:04:24.118Z,3.10
2018-09-19T15:06:53.541Z,4.70
2018-09-19T15:09:22.630Z,3.53
2018-09-19T15:11:51.699Z,4.33
2018-09-19T15:14:20.784Z,3.20
2018-09-19T15:16:49.906Z,3.80
2018-09-19T15:19:18.991Z,3.37
2018-09-19T15:21:47.976Z,2.73
2018-09-19T15:24:16.917Z,3.07
2018-09-19T15:26:45.863Z,3.20
2018-09-19T15:29:14.795Z,3.03
2018-09-19T15:31:43.963Z,3.83
2018-09-19T15:34:13.601Z,3.70
2018-09-19T15:36:42.723Z,3.13
2018-09-19T15:39:12.763Z,2.93
2018-09-19T15:41:41.813Z,2.70
2018-09-19T15:44:11.588Z,3.03
2018-09-19T15:46:40.611Z,3.20
2018-09-19T15:49:10.524Z,3.03
2018-09-19T15:51:40.991Z,3.30
2018-09-19T15:54:10.193Z,3.40
2018-09-19T15:56:39.393Z,3.60
2018-09-19T15:59:08.641Z,2.87
2018-09-19T16:01:37.640Z,3.33
2018-09-19T16:04:06.700Z,2.83
2018-09-19T16:06:35.806Z,3.43
2018-09-19T16:09:06.962Z,3.03
2018-09-19T16:11:37.033Z,2.93
2018-09-19T16:14:06.258Z,3.57
2018-09-19T16:16:35.297Z,2.97
2018-09-19T16:19:05.155Z,2.93
2018-09-19T16:21:34.502Z,2.60
2018-09-19T16:24:03.632Z,2.83
2018-09-19T16:26:32.538Z,3.00
2018-09-19T16:29:01.726Z,2.80
2018-09-19T16:31:30.857Z,3.20
2018-09-19T16:34:00.551Z,2.93
2018-09-19T16:36:29.735Z,3.00
2018-09-19T16:38:59.055Z,4.13
2018-09-19T16:41:28.070Z,3.23
2018-09-19T16:43:57.765Z,3.63
2018-09-19T16:46:26.882Z,3.07
2018-09-19T16:48:55.923Z,3.00
2018-09-19T16:51:25.052Z,3.23
2018-09-19T16:53:53.979Z,3.70
2018-09-19T16:56:23.794Z,3.63
2018-09-19T16:58:53.429Z,3.90
2018-09-19T17:01:22.499Z,3.00
2018-09-19T17:03:51.723Z,2.70
2018-09-19T17:06:21.515Z,3.27
2018-09-19T17:08:50.597Z,2.80
2018-09-19T17:11:22.836Z,2.80
2018-09-19T17:13:51.815Z,3.07
2018-09-19T17:16:20.793Z,3.20
2018-09-19T17:18:49.994Z,2.87
2018-09-19T17:21:19.316Z,2.90
2018-09-19T17:23:48.643Z,3.03
2018-09-19T17:26:17.865Z,2.67
2018-09-19T17:28:47.046Z,2.90
2018-09-19T17:31:16.176Z,3.10
2018-09-19T17:33:45.213Z,3.37
2018-09-19T17:36:14.361Z,3.55
2018-09-19T17:38:43.878Z,3.40
2018-09-19T17:41:14.258Z,3.73
2018-09-19T17:43:43.543Z,3.40
2018-09-19T17:46:12.684Z,3.20
2018-09-19T17:48:41.859Z,3.92
2018-09-19T17:51:10.946Z,4.00
2018-09-19T17:53:40.088Z,3.67
2018-09-19T17:56:10.181Z,4.22
2018-09-19T17:58:38.995Z,4.17
2018-09-19T18:01:07.958Z,4.05
2018-09-19T18:03:36.817Z,4.10
2018-09-19T18:06:05.783Z,4.15
2018-09-19T18:08:34.811Z,4.40
2018-09-19T18:11:04.005Z,4.67
2018-09-19T18:13:33.619Z,3.63
2018-09-19T18:16:02.862Z,4.60
2018-09-19T18:18:32.089Z,4.40
2018-09-19T18:21:01.242Z,4.23
2018-09-19T18:23:30.951Z,3.80
2018-09-19T18:26:00.174Z,3.50
2018-09-19T18:28:29.806Z,3.50
2018-09-19T18:30:58.905Z,4.67
2018-09-19T18:33:28.013Z,4.00
2018-09-19T18:35:57.183Z,3.87
2018-09-19T18:38:27.071Z,4.60
2018-09-19T18:40:56.106Z,4.40
2018-09-19T18:43:26.741Z,4.30
2018-09-19T18:45:56.041Z,4.77
2018-09-19T18:48:25.070Z,4.07
2018-09-19T18:50:54.244Z,4.45
2018-09-19T18:53:23.243Z,4.72
2018-09-19T18:55:53.487Z,4.78
2018-09-19T18:58:22.866Z,4.47
2018-09-19T19:00:52.087Z,4.60
2018-09-19T19:03:21.350Z,4.47
2018-09-19T19:05:50.474Z,4.50
2018-09-19T19:08:19.511Z,4.72
2018-09-19T19:10:49.399Z,4.30
2018-09-19T19:13:18.515Z,4.83
2018-09-19T19:15:48.084Z,4.73
2018-09-19T19:18:17.917Z,4.35
2018-09-19T19:20:47.010Z,4.50
2018-09-19T19:23:16.062Z,4.37
2018-09-19T19:25:45.323Z,4.30
2018-09-19T19:28:14.708Z,4.40
2018-09-19T19:30:44.591Z,4.00
2018-09-19T19:33:13.735Z,4.10
2018-09-19T19:35:43.531Z,3.77
2018-09-19T19:38:12.735Z,4.70
2018-09-19T19:40:41.657Z,3.67
2018-09-19T19:43:10.928Z,4.20
2018-09-19T19:45:40.225Z,4.20
2018-09-19T19:48:09.375Z,3.95
2018-09-19T19:50:38.478Z,4.40
2018-09-19T19:53:07.682Z,4.08
2018-09-19T19:55:37.356Z,4.20
2018-09-19T19:58:06.556Z,3.87
2018-09-19T20:00:35.726Z,4.50
2018-09-19T20:03:04.947Z,4.35
2018-09-19T20:05:34.246Z,4.42
2018-09-19T20:08:03.531Z,5.03
2018-09-19T20:10:32.577Z,4.50
2018-09-19T20:13:01.638Z,4.78
2018-09-19T20:15:33.345Z,4.57
2018-09-19T20:18:02.417Z,4.42
2018-09-19T20:20:31.756Z,4.92
2018-09-19T20:23:01.019Z,4.47
2018-09-19T20:26:27.924Z,4.70
2018-09-19T20:28:57.191Z,4.83
2018-09-19T20:31:26.191Z,4.75
2018-09-19T20:33:55.222Z,4.90
2018-09-19T20:36:24.179Z,4.70
2018-09-19T20:38:54.181Z,4.37
2018-09-19T20:41:23.193Z,4.20
2018-09-19T20:43:52.289Z,4.43
2018-09-19T20:46:22.883Z,4.40
2018-09-19T20:48:52.025Z,4.67
2018-09-19T20:51:21.115Z,4.23
2018-09-19T20:53:50.593Z,4.70
2018-09-19T20:56:19.590Z,3.97
2018-09-19T20:58:48.678Z,4.00
2018-09-19T21:01:17.769Z,3.70
2018-09-19T21:03:46.765Z,4.30
2018-09-19T21:06:15.811Z,4.93
2018-09-19T21:08:44.797Z,3.67
2018-09-19T21:11:14.461Z,4.23
2018-09-19T21:13:43.316Z,4.60
2018-09-19T21:16:12.484Z,4.67
2018-09-19T21:18:41.587Z,4.13
2018-09-19T21:21:10.904Z,4.30
2018-09-19T21:23:39.978Z,4.10
2018-09-19T21:26:09.106Z,4.77
2018-09-19T21:28:38.057Z,4.60
2018-09-19T21:31:07.687Z,4.30
2018-09-19T21:33:36.704Z,5.10
2018-09-19T21:36:06.787Z,4.17
2018-09-19T21:38:35.721Z,3.80
2018-09-19T21:41:05.029Z,4.53
2018-09-19T21:43:34.499Z,3.67
2018-09-19T21:46:03.736Z,4.27
2018-09-19T21:48:36.462Z,4.50
2018-09-19T21:51:06.392Z,4.53
2018-09-19T21:53:35.353Z,4.23
2018-09-19T21:56:04.618Z,4.20
2018-09-19T21:58:33.729Z,4.20
2018-09-19T22:01:09.216Z,4.87
2018-09-19T22:03:40.226Z,4.63
2018-09-19T22:06:09.748Z,4.27
2018-09-19T22:08:38.825Z,4.20
2018-09-19T22:11:07.821Z,5.50
2018-09-19T22:13:36.835Z,5.27
2018-09-19T22:16:05.829Z,4.00
2018-09-19T22:18:35.246Z,4.20
2018-09-19T22:21:04.951Z,4.27
2018-09-19T22:23:34.968Z,4.40
2018-09-19T22:26:04.143Z,4.27
2018-09-19T22:28:33.117Z,4.43
2018-09-19T22:31:03.297Z,4.70
2018-09-19T22:33:32.867Z,3.90
2018-09-19T22:36:02.418Z,5.03
2018-09-19T22:38:32.547Z,4.17
2018-09-19T22:41:01.915Z,5.03
2018-09-19T22:43:31.608Z,4.83
2018-09-19T22:46:01.151Z,4.47
2018-09-19T22:48:31.149Z,4.13
2018-09-19T22:51:00.704Z,4.40
2018-09-19T22:53:30.568Z,4.20
2018-09-19T22:56:00.196Z,4.10
2018-09-19T22:58:29.617Z,5.13
2018-09-19T23:00:59.180Z,4.13
2018-09-19T23:03:28.782Z,4.30
2018-09-19T23:05:58.214Z,4.03
2018-09-19T23:08:27.758Z,4.40
2018-09-19T23:10:57.345Z,4.23
2018-09-19T23:13:26.949Z,4.00
2018-09-19T23:15:56.583Z,4.57
2018-09-19T23:18:26.103Z,4.40
2018-09-19T23:20:55.549Z,4.47
2018-09-19T23:23:24.782Z,4.20
2018-09-19T23:25:54.408Z,4.43
2018-09-19T23:28:24.059Z,4.43
2018-09-19T23:30:53.557Z,4.00
2018-09-19T23:33:23.035Z,4.53
2018-09-19T23:35:52.646Z,4.23
2018-09-19T23:38:22.120Z,3.83
2018-09-19T23:40:51.788Z,4.33
2018-09-19T23:43:21.172Z,4.27
2018-09-19T23:45:51.079Z,4.30
2018-09-19T23:48:20.526Z,4.07
2018-09-19T23:50:49.968Z,3.87
2018-09-19T23:53:19.508Z,4.10
2018-09-19T23:55:49.045Z,4.20
2018-09-19T23:58:18.557Z,3.80
